sensor_id;sensor_type;location;lat;lon;timestamp;pressure;altitude;pressure_sealevel;temperature;humidity
12536;BME280;6334;48.696;2.114;2023-11-21T00:00:07;99682.16;;;10.85;86.00
12536;BME280;6334;48.696;2.114;2023-11-21T00:02:38;99689.08;;;10.92;85.98
12536;BME280;6334;48.696;2.114;2023-11-21T00:05:08;99688.77;;;10.69;86.78
12536;BME280;6334;48.696;2.114;2023-11-21T00:07:38;99691.62;;;10.87;85.74
12536;BME280;6334;48.696;2.114;2023-11-21T00:10:09;99693.92;;;10.92;85.55
12536;BME280;6334;48.696;2.114;2023-11-21T00:12:39;99694.70;;;10.94;85.50
12536;BME280;6334;48.696;2.114;2023-11-21T00:15:10;99673.66;;;10.81;85.48
12536;BME280;6334;48.696;2.114;2023-11-21T00:17:40;99679.97;;;10.59;86.37
12536;BME280;6334;48.696;2.114;2023-11-21T00:20:11;99683.47;;;10.68;86.00
12536;BME280;6334;48.696;2.114;2023-11-21T00:22:41;99680.91;;;10.47;86.62
12536;BME280;6334;48.696;2.114;2023-11-21T00:25:12;99681.83;;;10.62;86.25
12536;BME280;6334;48.696;2.114;2023-11-21T00:27:42;99691.92;;;10.50;86.70
12536;BME280;6334;48.696;2.114;2023-11-21T00:30:13;99692.11;;;10.68;86.07
12536;BME280;6334;48.696;2.114;2023-11-21T00:32:43;99691.61;;;10.68;85.63
12536;BME280;6334;48.696;2.114;2023-11-21T00:35:13;99688.95;;;10.69;85.40
12536;BME280;6334;48.696;2.114;2023-11-21T00:37:44;99692.12;;;10.82;84.33
12536;BME280;6334;48.696;2.114;2023-11-21T00:40:14;99691.13;;;10.67;84.98
12536;BME280;6334;48.696;2.114;2023-11-21T00:42:45;99688.73;;;10.80;84.83
12536;BME280;6334;48.696;2.114;2023-11-21T00:45:15;99689.30;;;10.81;84.57
12536;BME280;6334;48.696;2.114;2023-11-21T00:47:46;99678.47;;;10.72;84.90
12536;BME280;6334;48.696;2.114;2023-11-21T00:50:16;99678.23;;;10.34;85.50
12536;BME280;6334;48.696;2.114;2023-11-21T00:52:47;99685.27;;;10.19;86.74
12536;BME280;6334;48.696;2.114;2023-11-21T00:55:17;99685.88;;;10.49;85.69
12536;BME280;6334;48.696;2.114;2023-11-21T00:57:48;99683.93;;;10.32;85.91
12536;BME280;6334;48.696;2.114;2023-11-21T01:00:18;99690.01;;;10.45;85.78
12536;BME280;6334;48.696;2.114;2023-11-21T01:02:48;99687.91;;;10.65;85.05
12536;BME280;6334;48.696;2.114;2023-11-21T01:05:19;99692.15;;;10.38;86.59
12536;BME280;6334;48.696;2.114;2023-11-21T01:07:49;99685.59;;;10.36;86.44
12536;BME280;6334;48.696;2.114;2023-11-21T01:10:20;99693.04;;;9.94;87.91
12536;BME280;6334;48.696;2.114;2023-11-21T01:12:50;99692.52;;;10.50;86.07
12536;BME280;6334;48.696;2.114;2023-11-21T01:15:21;99690.75;;;10.25;87.02
12536;BME280;6334;48.696;2.114;2023-11-21T01:17:51;99697.27;;;10.11;87.31
12536;BME280;6334;48.696;2.114;2023-11-21T01:20:22;99693.64;;;10.52;86.05
12536;BME280;6334;48.696;2.114;2023-11-21T01:22:52;99694.66;;;10.74;84.78
12536;BME280;6334;48.696;2.114;2023-11-21T01:25:22;99699.50;;;10.30;86.23
12536;BME280;6334;48.696;2.114;2023-11-21T01:27:53;99689.48;;;10.38;86.19
12536;BME280;6334;48.696;2.114;2023-11-21T01:30:23;99688.78;;;10.54;85.40
12536;BME280;6334;48.696;2.114;2023-11-21T01:32:54;99690.29;;;10.27;86.71
12536;BME280;6334;48.696;2.114;2023-11-21T01:35:24;99697.59;;;10.50;86.07
12536;BME280;6334;48.696;2.114;2023-11-21T01:37:55;99709.09;;;10.48;85.61
12536;BME280;6334;48.696;2.114;2023-11-21T01:40:25;99704.52;;;10.58;85.14
12536;BME280;6334;48.696;2.114;2023-11-21T01:42:56;99709.57;;;10.12;86.85
12536;BME280;6334;48.696;2.114;2023-11-21T01:45:26;99708.68;;;10.62;85.55
12536;BME280;6334;48.696;2.114;2023-11-21T01:47:57;99709.75;;;10.78;84.59
12536;BME280;6334;48.696;2.114;2023-11-21T01:50:27;99712.10;;;10.75;84.42
12536;BME280;6334;48.696;2.114;2023-11-21T01:52:57;99713.42;;;10.53;85.51
12536;BME280;6334;48.696;2.114;2023-11-21T01:55:28;99717.47;;;10.35;85.62
12536;BME280;6334;48.696;2.114;2023-11-21T01:57:58;99718.84;;;10.57;85.36
12536;BME280;6334;48.696;2.114;2023-11-21T02:00:29;99720.33;;;10.72;84.50
12536;BME280;6334;48.696;2.114;2023-11-21T02:02:59;99721.66;;;10.47;85.40
12536;BME280;6334;48.696;2.114;2023-11-21T02:05:30;99722.47;;;10.65;85.63
12536;BME280;6334;48.696;2.114;2023-11-21T02:08:00;99728.83;;;10.36;85.76
12536;BME280;6334;48.696;2.114;2023-11-21T02:10:32;99714.88;;;10.61;84.95
12536;BME280;6334;48.696;2.114;2023-11-21T02:13:01;99722.77;;;10.61;84.77
12536;BME280;6334;48.696;2.114;2023-11-21T02:15:32;99721.01;;;10.62;85.52
12536;BME280;6334;48.696;2.114;2023-11-21T02:18:02;99721.69;;;10.28;86.32
12536;BME280;6334;48.696;2.114;2023-11-21T02:20:32;99716.98;;;10.55;85.68
12536;BME280;6334;48.696;2.114;2023-11-21T02:23:03;99709.05;;;10.61;85.63
12536;BME280;6334;48.696;2.114;2023-11-21T02:25:33;99721.39;;;10.73;84.77
12536;BME280;6334;48.696;2.114;2023-11-21T02:28:04;99717.94;;;10.60;85.17
12536;BME280;6334;48.696;2.114;2023-11-21T02:30:34;99721.13;;;10.79;85.01
12536;BME280;6334;48.696;2.114;2023-11-21T02:33:05;99723.73;;;10.87;84.59
12536;BME280;6334;48.696;2.114;2023-11-21T02:35:35;99719.90;;;10.59;85.93
12536;BME280;6334;48.696;2.114;2023-11-21T02:38:06;99723.44;;;10.85;85.27
12536;BME280;6334;48.696;2.114;2023-11-21T02:40:36;99733.87;;;10.77;85.05
12536;BME280;6334;48.696;2.114;2023-11-21T02:43:06;99737.50;;;10.79;85.48
12536;BME280;6334;48.696;2.114;2023-11-21T02:45:37;99740.53;;;10.74;85.82
12536;BME280;6334;48.696;2.114;2023-11-21T02:48:07;99741.08;;;10.76;85.27
12536;BME280;6334;48.696;2.114;2023-11-21T02:50:39;99736.61;;;10.78;85.22
12536;BME280;6334;48.696;2.114;2023-11-21T02:53:09;99738.67;;;10.89;84.85
12536;BME280;6334;48.696;2.114;2023-11-21T02:55:40;99733.14;;;10.95;84.44
12536;BME280;6334;48.696;2.114;2023-11-21T02:58:10;99736.79;;;10.19;87.19
12536;BME280;6334;48.696;2.114;2023-11-21T03:00:41;99735.05;;;10.67;85.91
12536;BME280;6334;48.696;2.114;2023-11-21T03:03:11;99735.34;;;10.60;86.02
12536;BME280;6334;48.696;2.114;2023-11-21T03:05:42;99736.59;;;10.79;85.46
12536;BME280;6334;48.696;2.114;2023-11-21T03:08:12;99737.84;;;10.85;85.24
12536;BME280;6334;48.696;2.114;2023-11-21T03:10:43;99733.66;;;10.66;86.00
12536;BME280;6334;48.696;2.114;2023-11-21T03:13:13;99731.90;;;10.81;84.96
12536;BME280;6334;48.696;2.114;2023-11-21T03:15:44;99731.64;;;10.58;86.53
12536;BME280;6334;48.696;2.114;2023-11-21T03:18:14;99734.71;;;10.78;85.41
12536;BME280;6334;48.696;2.114;2023-11-21T03:20:45;99735.50;;;10.84;85.52
12536;BME280;6334;48.696;2.114;2023-11-21T03:23:15;99732.48;;;10.57;87.25
12536;BME280;6334;48.696;2.114;2023-11-21T03:25:45;99740.58;;;10.94;85.57
12536;BME280;6334;48.696;2.114;2023-11-21T03:28:16;99744.34;;;10.83;85.43
12536;BME280;6334;48.696;2.114;2023-11-21T03:30:46;99744.42;;;10.69;86.05
12536;BME280;6334;48.696;2.114;2023-11-21T03:33:17;99745.48;;;10.72;86.42
12536;BME280;6334;48.696;2.114;2023-11-21T03:35:47;99748.87;;;10.76;86.08
12536;BME280;6334;48.696;2.114;2023-11-21T03:38:18;99752.48;;;10.85;85.76
12536;BME280;6334;48.696;2.114;2023-11-21T03:40:48;99746.35;;;10.97;84.90
12536;BME280;6334;48.696;2.114;2023-11-21T03:43:19;99750.31;;;11.07;84.64
12536;BME280;6334;48.696;2.114;2023-11-21T03:45:49;99750.35;;;11.02;85.03
12536;BME280;6334;48.696;2.114;2023-11-21T03:48:20;99745.37;;;11.06;84.75
12536;BME280;6334;48.696;2.114;2023-11-21T03:50:50;99747.92;;;10.83;85.19
12536;BME280;6334;48.696;2.114;2023-11-21T03:53:21;99751.48;;;10.80;85.52
12536;BME280;6334;48.696;2.114;2023-11-21T03:55:51;99755.52;;;10.57;86.56
12536;BME280;6334;48.696;2.114;2023-11-21T03:58:21;99761.21;;;10.94;85.57
12536;BME280;6334;48.696;2.114;2023-11-21T04:00:52;99760.23;;;10.80;85.75
12536;BME280;6334;48.696;2.114;2023-11-21T04:03:22;99761.85;;;10.82;85.98
12536;BME280;6334;48.696;2.114;2023-11-21T04:05:53;99764.68;;;10.82;86.14
12536;BME280;6334;48.696;2.114;2023-11-21T04:08:23;99768.70;;;10.76;86.34
12536;BME280;6334;48.696;2.114;2023-11-21T04:10:54;99773.31;;;10.82;85.87
12536;BME280;6334;48.696;2.114;2023-11-21T04:13:24;99777.42;;;11.01;84.91
12536;BME280;6334;48.696;2.114;2023-11-21T04:15:55;99777.51;;;10.90;85.24
12536;BME280;6334;48.696;2.114;2023-11-21T04:18:25;99779.64;;;10.68;86.04
12536;BME280;6334;48.696;2.114;2023-11-21T04:20:56;99785.86;;;10.79;86.01
12536;BME280;6334;48.696;2.114;2023-11-21T04:23:26;99788.30;;;10.78;86.18
12536;BME280;6334;48.696;2.114;2023-11-21T04:25:56;99791.31;;;10.67;86.91
12536;BME280;6334;48.696;2.114;2023-11-21T04:28:27;99793.02;;;10.74;86.89
12536;BME280;6334;48.696;2.114;2023-11-21T04:30:57;99793.98;;;10.51;87.37
12536;BME280;6334;48.696;2.114;2023-11-21T04:33:28;99794.30;;;10.67;87.22
12536;BME280;6334;48.696;2.114;2023-11-21T04:35:58;99802.56;;;10.55;87.95
12536;BME280;6334;48.696;2.114;2023-11-21T04:38:29;99791.12;;;10.52;88.20
12536;BME280;6334;48.696;2.114;2023-11-21T04:40:59;99802.14;;;10.81;87.00
12536;BME280;6334;48.696;2.114;2023-11-21T04:43:30;99805.30;;;10.87;86.67
12536;BME280;6334;48.696;2.114;2023-11-21T04:46:00;99809.30;;;10.91;86.66
12536;BME280;6334;48.696;2.114;2023-11-21T04:48:31;99814.92;;;10.92;86.77
12536;BME280;6334;48.696;2.114;2023-11-21T04:51:01;99815.84;;;10.68;87.86
12536;BME280;6334;48.696;2.114;2023-11-21T04:53:31;99815.72;;;10.70;87.62
12536;BME280;6334;48.696;2.114;2023-11-21T04:56:02;99815.94;;;10.60;88.17
12536;BME280;6334;48.696;2.114;2023-11-21T04:58:32;99807.91;;;10.47;88.57
12536;BME280;6334;48.696;2.114;2023-11-21T05:01:03;99809.13;;;10.54;89.09
12536;BME280;6334;48.696;2.114;2023-11-21T05:03:33;99807.56;;;10.64;89.08
12536;BME280;6334;48.696;2.114;2023-11-21T05:06:04;99813.92;;;10.46;88.93
12536;BME280;6334;48.696;2.114;2023-11-21T05:08:34;99817.63;;;10.54;89.39
12536;BME280;6334;48.696;2.114;2023-11-21T05:11:05;99817.58;;;10.62;89.42
12536;BME280;6334;48.696;2.114;2023-11-21T05:13:35;99815.42;;;10.77;88.27
12536;BME280;6334;48.696;2.114;2023-11-21T05:16:05;99812.27;;;10.77;88.35
12536;BME280;6334;48.696;2.114;2023-11-21T05:18:36;99814.14;;;10.31;90.09
12536;BME280;6334;48.696;2.114;2023-11-21T05:21:06;99822.86;;;10.59;89.40
12536;BME280;6334;48.696;2.114;2023-11-21T05:23:37;99824.28;;;10.69;88.73
12536;BME280;6334;48.696;2.114;2023-11-21T05:26:07;99826.08;;;10.56;89.31
12536;BME280;6334;48.696;2.114;2023-11-21T05:28:38;99823.08;;;10.68;88.74
12536;BME280;6334;48.696;2.114;2023-11-21T05:31:08;99827.16;;;10.63;88.64
12536;BME280;6334;48.696;2.114;2023-11-21T05:33:39;99832.86;;;10.42;89.73
12536;BME280;6334;48.696;2.114;2023-11-21T05:36:09;99833.02;;;10.65;88.92
12536;BME280;6334;48.696;2.114;2023-11-21T05:38:40;99834.02;;;10.38;91.03
12536;BME280;6334;48.696;2.114;2023-11-21T05:41:10;99838.98;;;10.86;87.98
12536;BME280;6334;48.696;2.114;2023-11-21T05:43:40;99840.13;;;10.74;89.19
12536;BME280;6334;48.696;2.114;2023-11-21T05:46:11;99841.20;;;10.62;89.51
12536;BME280;6334;48.696;2.114;2023-11-21T05:48:41;99837.19;;;10.76;89.06
12536;BME280;6334;48.696;2.114;2023-11-21T05:51:12;99837.23;;;10.33;90.41
12536;BME280;6334;48.696;2.114;2023-11-21T05:53:42;99836.21;;;10.57;90.33
12536;BME280;6334;48.696;2.114;2023-11-21T05:56:13;99839.34;;;10.48;90.71
12536;BME280;6334;48.696;2.114;2023-11-21T05:58:43;99844.22;;;10.67;89.76
12536;BME280;6334;48.696;2.114;2023-11-21T06:01:14;99844.23;;;10.38;91.36
12536;BME280;6334;48.696;2.114;2023-11-21T06:03:44;99848.09;;;10.91;88.61
12536;BME280;6334;48.696;2.114;2023-11-21T06:06:15;99844.26;;;10.47;89.52
12536;BME280;6334;48.696;2.114;2023-11-21T06:08:45;99851.31;;;10.48;90.29
12536;BME280;6334;48.696;2.114;2023-11-21T06:11:16;99853.75;;;10.70;89.78
12536;BME280;6334;48.696;2.114;2023-11-21T06:13:46;99856.45;;;10.68;89.77
12536;BME280;6334;48.696;2.114;2023-11-21T06:16:18;99856.36;;;10.83;89.59
12536;BME280;6334;48.696;2.114;2023-11-21T06:18:48;99857.84;;;10.78;89.99
12536;BME280;6334;48.696;2.114;2023-11-21T06:21:19;99859.28;;;10.78;90.08
12536;BME280;6334;48.696;2.114;2023-11-21T06:23:49;99862.05;;;10.81;89.84
12536;BME280;6334;48.696;2.114;2023-11-21T06:26:20;99863.78;;;10.86;89.58
12536;BME280;6334;48.696;2.114;2023-11-21T06:28:50;99863.42;;;10.67;91.17
12536;BME280;6334;48.696;2.114;2023-11-21T06:31:21;99865.89;;;10.87;89.89
12536;BME280;6334;48.696;2.114;2023-11-21T06:33:51;99865.81;;;10.75;90.51
12536;BME280;6334;48.696;2.114;2023-11-21T06:36:21;99866.15;;;10.64;90.85
12536;BME280;6334;48.696;2.114;2023-11-21T06:38:55;99871.24;;;10.94;90.11
12536;BME280;6334;48.696;2.114;2023-11-21T06:41:25;99868.56;;;10.95;90.01
12536;BME280;6334;48.696;2.114;2023-11-21T06:43:56;99865.55;;;10.81;90.34
12536;BME280;6334;48.696;2.114;2023-11-21T06:46:26;99868.06;;;11.84;94.95
12536;BME280;6334;48.696;2.114;2023-11-21T06:48:56;99868.80;;;11.55;92.54
12536;BME280;6334;48.696;2.114;2023-11-21T06:51:27;99873.50;;;10.99;91.80
12536;BME280;6334;48.696;2.114;2023-11-21T06:53:57;99875.14;;;11.01;90.65
12536;BME280;6334;48.696;2.114;2023-11-21T06:56:28;99878.02;;;10.87;90.66
12536;BME280;6334;48.696;2.114;2023-11-21T06:58:58;99883.36;;;11.16;89.81
12536;BME280;6334;48.696;2.114;2023-11-21T07:01:29;99882.47;;;11.10;89.44
12536;BME280;6334;48.696;2.114;2023-11-21T07:03:59;99890.82;;;10.89;90.69
12536;BME280;6334;48.696;2.114;2023-11-21T07:06:30;99896.00;;;10.86;91.94
12536;BME280;6334;48.696;2.114;2023-11-21T07:09:00;99900.34;;;10.81;91.63
12536;BME280;6334;48.696;2.114;2023-11-21T07:11:31;99900.89;;;10.83;91.50
12536;BME280;6334;48.696;2.114;2023-11-21T07:14:01;99902.75;;;10.92;91.30
12536;BME280;6334;48.696;2.114;2023-11-21T07:16:31;99907.56;;;10.98;91.18
12536;BME280;6334;48.696;2.114;2023-11-21T07:19:02;99912.31;;;10.87;91.26
12536;BME280;6334;48.696;2.114;2023-11-21T07:21:36;99912.35;;;10.91;90.94
12536;BME280;6334;48.696;2.114;2023-11-21T07:24:06;99926.03;;;10.87;92.07
12536;BME280;6334;48.696;2.114;2023-11-21T07:26:36;99928.94;;;10.64;93.24
12536;BME280;6334;48.696;2.114;2023-11-21T07:29:07;99928.07;;;10.68;93.42
12536;BME280;6334;48.696;2.114;2023-11-21T07:31:37;99936.80;;;10.67;93.54
12536;BME280;6334;48.696;2.114;2023-11-21T07:34:08;99937.11;;;10.92;92.55
12536;BME280;6334;48.696;2.114;2023-11-21T07:36:38;99938.44;;;10.64;93.64
12536;BME280;6334;48.696;2.114;2023-11-21T07:39:08;99932.46;;;10.81;93.81
12536;BME280;6334;48.696;2.114;2023-11-21T07:41:39;99945.14;;;10.91;92.80
12536;BME280;6334;48.696;2.114;2023-11-21T07:44:09;99943.88;;;10.54;95.01
12536;BME280;6334;48.696;2.114;2023-11-21T07:46:40;99952.59;;;10.63;95.56
12536;BME280;6334;48.696;2.114;2023-11-21T07:49:10;99952.78;;;10.74;94.57
12536;BME280;6334;48.696;2.114;2023-11-21T07:51:44;99956.50;;;10.63;95.41
12536;BME280;6334;48.696;2.114;2023-11-21T07:54:14;99963.62;;;10.66;95.35
12536;BME280;6334;48.696;2.114;2023-11-21T07:56:45;99969.58;;;10.73;95.01
12536;BME280;6334;48.696;2.114;2023-11-21T07:59:15;99967.45;;;10.71;95.25
12536;BME280;6334;48.696;2.114;2023-11-21T08:01:46;99970.42;;;10.85;95.03
12536;BME280;6334;48.696;2.114;2023-11-21T08:04:16;99972.17;;;10.84;94.83
12536;BME280;6334;48.696;2.114;2023-11-21T08:06:46;99972.25;;;10.80;95.41
12536;BME280;6334;48.696;2.114;2023-11-21T08:09:17;99974.59;;;10.61;96.04
12536;BME280;6334;48.696;2.114;2023-11-21T08:11:47;99985.25;;;11.02;94.16
12536;BME280;6334;48.696;2.114;2023-11-21T08:14:18;99981.86;;;10.82;94.77
12536;BME280;6334;48.696;2.114;2023-11-21T08:16:49;99985.50;;;10.90;94.61
12536;BME280;6334;48.696;2.114;2023-11-21T08:19:20;99987.03;;;10.89;94.83
12536;BME280;6334;48.696;2.114;2023-11-21T08:21:51;99986.58;;;10.65;95.82
12536;BME280;6334;48.696;2.114;2023-11-21T08:24:21;99995.89;;;11.04;94.27
12536;BME280;6334;48.696;2.114;2023-11-21T08:26:52;99993.55;;;10.97;94.56
12536;BME280;6334;48.696;2.114;2023-11-21T08:29:22;99996.73;;;10.96;95.17
12536;BME280;6334;48.696;2.114;2023-11-21T08:31:52;99996.62;;;10.99;94.96
12536;BME280;6334;48.696;2.114;2023-11-21T08:34:23;99994.50;;;11.01;95.03
12536;BME280;6334;48.696;2.114;2023-11-21T08:36:54;99999.83;;;11.02;95.05
12536;BME280;6334;48.696;2.114;2023-11-21T08:39:24;99996.41;;;11.02;95.20
12536;BME280;6334;48.696;2.114;2023-11-21T08:41:54;100000.64;;;11.15;94.38
12536;BME280;6334;48.696;2.114;2023-11-21T08:44:25;100002.75;;;10.94;95.29
12536;BME280;6334;48.696;2.114;2023-11-21T08:46:55;100011.72;;;11.07;95.09
12536;BME280;6334;48.696;2.114;2023-11-21T08:49:26;100012.08;;;11.11;95.04
12536;BME280;6334;48.696;2.114;2023-11-21T08:51:56;100012.52;;;11.23;94.72
12536;BME280;6334;48.696;2.114;2023-11-21T08:54:27;100016.59;;;11.06;95.99
12536;BME280;6334;48.696;2.114;2023-11-21T08:56:57;100016.23;;;10.81;97.64
12536;BME280;6334;48.696;2.114;2023-11-21T08:59:29;100021.66;;;11.11;95.21
12536;BME280;6334;48.696;2.114;2023-11-21T09:01:59;100018.59;;;11.12;95.60
12536;BME280;6334;48.696;2.114;2023-11-21T09:04:29;100026.07;;;11.00;96.41
12536;BME280;6334;48.696;2.114;2023-11-21T09:07:00;100025.18;;;10.92;97.15
12536;BME280;6334;48.696;2.114;2023-11-21T09:09:30;100034.67;;;11.17;95.58
12536;BME280;6334;48.696;2.114;2023-11-21T09:12:01;100036.55;;;11.12;96.10
12536;BME280;6334;48.696;2.114;2023-11-21T09:14:31;100031.14;;;11.25;94.77
12536;BME280;6334;48.696;2.114;2023-11-21T09:17:02;100030.86;;;11.14;95.93
12536;BME280;6334;48.696;2.114;2023-11-21T09:19:32;100031.53;;;11.07;97.25
12536;BME280;6334;48.696;2.114;2023-11-21T09:22:03;100033.16;;;11.11;96.07
12536;BME280;6334;48.696;2.114;2023-11-21T09:24:33;100036.41;;;11.12;96.04
12536;BME280;6334;48.696;2.114;2023-11-21T09:27:04;100041.61;;;11.08;96.91
12536;BME280;6334;48.696;2.114;2023-11-21T09:29:34;100043.16;;;11.17;96.29
12536;BME280;6334;48.696;2.114;2023-11-21T09:32:05;100050.75;;;11.23;95.31
12536;BME280;6334;48.696;2.114;2023-11-21T09:34:35;100053.37;;;11.18;95.13
12536;BME280;6334;48.696;2.114;2023-11-21T09:37:06;100055.89;;;11.28;94.42
12536;BME280;6334;48.696;2.114;2023-11-21T09:39:36;100056.71;;;11.24;95.45
12536;BME280;6334;48.696;2.114;2023-11-21T09:44:51;100062.98;;;11.28;95.56
12536;BME280;6334;48.696;2.114;2023-11-21T09:47:19;100065.99;;;11.28;96.66
12536;BME280;6334;48.696;2.114;2023-11-21T09:49:49;100067.39;;;11.34;94.99
12536;BME280;6334;48.696;2.114;2023-11-21T09:52:24;100072.02;;;11.47;94.11
12536;BME280;6334;48.696;2.114;2023-11-21T09:54:53;100077.52;;;11.43;93.70
12536;BME280;6334;48.696;2.114;2023-11-21T09:57:23;100077.31;;;11.27;95.50
12536;BME280;6334;48.696;2.114;2023-11-21T09:59:54;100076.30;;;11.40;94.87
12536;BME280;6334;48.696;2.114;2023-11-21T10:02:27;100082.53;;;11.35;94.98
12536;BME280;6334;48.696;2.114;2023-11-21T10:04:59;100090.17;;;11.41;94.73
12536;BME280;6334;48.696;2.114;2023-11-21T10:07:28;100095.91;;;11.42;93.91
12536;BME280;6334;48.696;2.114;2023-11-21T10:09:58;100096.52;;;11.41;94.73
12536;BME280;6334;48.696;2.114;2023-11-21T10:12:29;100103.41;;;11.49;94.39
12536;BME280;6334;48.696;2.114;2023-11-21T10:14:59;100100.33;;;11.31;94.71
12536;BME280;6334;48.696;2.114;2023-11-21T10:17:30;100106.62;;;11.69;91.92
12536;BME280;6334;48.696;2.114;2023-11-21T10:20:00;100102.66;;;11.44;93.33
12536;BME280;6334;48.696;2.114;2023-11-21T10:22:30;100113.55;;;11.26;94.37
12536;BME280;6334;48.696;2.114;2023-11-21T10:25:00;100115.27;;;11.29;93.58
12536;BME280;6334;48.696;2.114;2023-11-21T10:27:31;100112.28;;;11.34;93.99
12536;BME280;6334;48.696;2.114;2023-11-21T10:30:04;100114.19;;;11.46;93.14
12536;BME280;6334;48.696;2.114;2023-11-21T10:32:41;100122.16;;;11.41;94.23
12536;BME280;6334;48.696;2.114;2023-11-21T10:35:11;100118.08;;;11.31;95.31
12536;BME280;6334;48.696;2.114;2023-11-21T10:37:41;100123.81;;;11.38;94.16
12536;BME280;6334;48.696;2.114;2023-11-21T10:40:12;100126.33;;;11.42;94.46
12536;BME280;6334;48.696;2.114;2023-11-21T10:42:42;100116.89;;;11.38;94.66
12536;BME280;6334;48.696;2.114;2023-11-21T10:45:13;100120.48;;;11.48;95.56
12536;BME280;6334;48.696;2.114;2023-11-21T10:47:43;100123.18;;;11.42;95.01
12536;BME280;6334;48.696;2.114;2023-11-21T10:50:14;100123.67;;;11.54;94.94
12536;BME280;6334;48.696;2.114;2023-11-21T10:52:44;100124.31;;;11.62;93.71
12536;BME280;6334;48.696;2.114;2023-11-21T10:55:20;100124.17;;;11.47;94.96
12536;BME280;6334;48.696;2.114;2023-11-21T10:57:53;100125.53;;;11.50;95.21
12536;BME280;6334;48.696;2.114;2023-11-21T11:00:23;100125.47;;;11.50;95.77
12536;BME280;6334;48.696;2.114;2023-11-21T11:02:54;100123.42;;;11.48;94.80
12536;BME280;6334;48.696;2.114;2023-11-21T11:05:27;100125.16;;;11.60;95.40
12536;BME280;6334;48.696;2.114;2023-11-21T11:08:04;100123.92;;;11.59;95.29
12536;BME280;6334;48.696;2.114;2023-11-21T11:10:34;100124.05;;;11.61;95.07
12536;BME280;6334;48.696;2.114;2023-11-21T11:13:06;100125.95;;;11.39;95.75
12536;BME280;6334;48.696;2.114;2023-11-21T11:15:35;100126.56;;;11.49;95.82
12536;BME280;6334;48.696;2.114;2023-11-21T11:18:06;100120.89;;;11.66;95.86
12536;BME280;6334;48.696;2.114;2023-11-21T11:20:37;100127.52;;;11.69;95.49
12536;BME280;6334;48.696;2.114;2023-11-21T11:26:25;100121.91;;;11.55;96.44
12536;BME280;6334;48.696;2.114;2023-11-21T11:29:14;100122.60;;;11.58;96.20
12536;BME280;6334;48.696;2.114;2023-11-21T11:31:55;100131.03;;;11.64;95.72
12536;BME280;6334;48.696;2.114;2023-11-21T11:34:24;100126.77;;;11.47;95.65
12536;BME280;6334;48.696;2.114;2023-11-21T11:37:06;100129.08;;;11.55;96.27
12536;BME280;6334;48.696;2.114;2023-11-21T11:39:38;100121.63;;;11.45;97.13
12536;BME280;6334;48.696;2.114;2023-11-21T11:42:14;100134.16;;;11.53;97.17
12536;BME280;6334;48.696;2.114;2023-11-21T11:47:23;100140.31;;;11.55;97.00
12536;BME280;6334;48.696;2.114;2023-11-21T11:50:08;100134.05;;;11.45;96.11
12536;BME280;6334;48.696;2.114;2023-11-21T11:52:50;100137.82;;;11.65;96.04
12536;BME280;6334;48.696;2.114;2023-11-21T11:55:22;100134.28;;;11.57;96.04
12536;BME280;6334;48.696;2.114;2023-11-21T11:57:51;100130.97;;;11.51;97.49
12536;BME280;6334;48.696;2.114;2023-11-21T12:02:57;100131.55;;;11.37;96.88
12536;BME280;6334;48.696;2.114;2023-11-21T12:05:27;100133.98;;;11.62;96.18
12536;BME280;6334;48.696;2.114;2023-11-21T12:08:03;100132.38;;;11.51;97.59
12536;BME280;6334;48.696;2.114;2023-11-21T12:10:31;100138.41;;;11.60;96.42
12536;BME280;6334;48.696;2.114;2023-11-21T12:13:02;100137.63;;;11.79;95.44
12536;BME280;6334;48.696;2.114;2023-11-21T12:15:32;100137.06;;;11.65;95.95
12536;BME280;6334;48.696;2.114;2023-11-21T12:18:02;100141.78;;;11.68;96.40
12536;BME280;6334;48.696;2.114;2023-11-21T12:20:33;100144.09;;;11.75;95.27
12536;BME280;6334;48.696;2.114;2023-11-21T12:23:05;100142.45;;;11.63;95.71
12536;BME280;6334;48.696;2.114;2023-11-21T12:25:35;100140.52;;;11.87;95.04
12536;BME280;6334;48.696;2.114;2023-11-21T12:28:05;100137.89;;;11.56;95.95
12536;BME280;6334;48.696;2.114;2023-11-21T12:30:36;100149.61;;;11.86;95.19
12536;BME280;6334;48.696;2.114;2023-11-21T12:33:06;100139.59;;;11.53;96.56
12536;BME280;6334;48.696;2.114;2023-11-21T12:35:37;100141.47;;;11.84;94.41
12536;BME280;6334;48.696;2.114;2023-11-21T12:38:07;100148.25;;;11.87;94.89
12536;BME280;6334;48.696;2.114;2023-11-21T12:40:38;100147.09;;;11.63;96.86
12536;BME280;6334;48.696;2.114;2023-11-21T12:43:09;100144.52;;;11.40;95.46
12536;BME280;6334;48.696;2.114;2023-11-21T12:45:40;100141.55;;;11.56;94.51
12536;BME280;6334;48.696;2.114;2023-11-21T12:48:10;100153.45;;;11.68;95.55
12536;BME280;6334;48.696;2.114;2023-11-21T12:50:41;100158.37;;;11.64;94.57
12536;BME280;6334;48.696;2.114;2023-11-21T12:53:11;100165.03;;;11.68;94.97
12536;BME280;6334;48.696;2.114;2023-11-21T12:55:43;100167.67;;;11.76;94.83
12536;BME280;6334;48.696;2.114;2023-11-21T12:58:12;100171.06;;;11.72;94.17
12536;BME280;6334;48.696;2.114;2023-11-21T13:00:44;100164.01;;;11.59;94.57
12536;BME280;6334;48.696;2.114;2023-11-21T13:03:15;100173.27;;;11.86;93.60
12536;BME280;6334;48.696;2.114;2023-11-21T13:05:46;100173.31;;;11.55;95.22
12536;BME280;6334;48.696;2.114;2023-11-21T13:08:18;100178.80;;;11.85;93.21
12536;BME280;6334;48.696;2.114;2023-11-21T13:10:53;100182.22;;;11.97;94.16
12536;BME280;6334;48.696;2.114;2023-11-21T13:13:20;100180.88;;;11.92;92.47
12536;BME280;6334;48.696;2.114;2023-11-21T13:15:54;100188.52;;;11.96;93.53
12536;BME280;6334;48.696;2.114;2023-11-21T13:18:24;100183.45;;;11.94;92.10
12536;BME280;6334;48.696;2.114;2023-11-21T13:21:04;100191.23;;;11.77;93.63
12536;BME280;6334;48.696;2.114;2023-11-21T13:23:40;100192.63;;;11.80;92.92
12536;BME280;6334;48.696;2.114;2023-11-21T13:26:10;100195.53;;;11.99;91.14
12536;BME280;6334;48.696;2.114;2023-11-21T13:28:41;100201.58;;;11.95;93.25
12536;BME280;6334;48.696;2.114;2023-11-21T13:31:11;100198.38;;;11.99;92.86
12536;BME280;6334;48.696;2.114;2023-11-21T13:33:54;100200.83;;;12.02;93.09
12536;BME280;6334;48.696;2.114;2023-11-21T13:36:26;100205.17;;;12.06;92.81